Time;durP1;ratioP1;P1;durP2;ratioP2;P2;SDS_P1;SDS_P2;PMS_P1;PMS_P2;Temp;Humidity;BMP_temperature;BMP_pressure;BME280_temperature;BME280_humidity;BME280_pressure;Samples;Min_cycle;Max_cycle;Signal;HPM_P1;HPM_P2
2022/05/22 00:01:41;;;;;;;;;;;10.60;99.90;;;;;;5059026;28;20085;-47
2022/05/22 00:04:10;;;;;;;;;;;10.70;99.90;;;;;;5066633;28;19931;-47
2022/05/22 00:06:36;;;;;;;;;;;10.70;99.90;;;;;;5050399;28;20424;-47
2022/05/22 00:09:01;;;;;;;;;;;10.70;99.90;;;;;;5053257;28;19929;-48
2022/05/22 00:11:27;;;;;;;;;;;10.70;99.90;;;;;;5050515;28;19920;-47
2022/05/22 00:13:53;;;;;;;;;;;10.80;99.90;;;;;;5051445;28;19971;-47
2022/05/22 00:16:37;;;;;;;;;;;10.80;99.90;;;;;;5063718;28;19951;-47
2022/05/22 00:19:03;;;;;;;;;;;10.80;99.90;;;;;;5070074;28;20376;-48
2022/05/22 00:21:28;;;;;;;;;;;10.80;99.90;;;;;;5066324;28;19944;-48
2022/05/22 00:23:54;;;;;;;;;;;10.80;99.90;;;;;;5069012;28;20003;-48
2022/05/22 00:26:19;;;;;;;;;;;10.80;99.90;;;;;;5052255;28;20024;-48
2022/05/22 00:28:45;;;;;;;;;;;10.80;99.90;;;;;;5068255;28;19920;-48
2022/05/22 00:31:10;;;;;;;;;;;10.80;99.90;;;;;;5070394;28;20015;-49
2022/05/22 00:33:36;;;;;;;;;;;10.80;99.90;;;;;;5054261;28;19916;-47
2022/05/22 00:36:02;;;;;;;;;;;10.80;99.90;;;;;;5049485;28;19916;-47
2022/05/22 00:38:27;;;;;;;;;;;10.80;99.90;;;;;;5061176;28;19916;-47
2022/05/22 00:40:53;;;;;;;;;;;10.80;99.90;;;;;;5055930;28;20016;-49
2022/05/22 00:43:32;;;;;;;;;;;10.70;99.90;;;;;;5070132;28;19916;-47
2022/05/22 00:45:58;;;;;;;;;;;10.60;99.90;;;;;;5056439;28;20275;-47
2022/05/22 00:48:25;;;;;;;;;;;10.50;99.90;;;;;;5051554;28;20408;-48
2022/05/22 00:50:51;;;;;;;;;;;10.50;99.90;;;;;;5054616;28;19917;-47
2022/05/22 00:53:17;;;;;;;;;;;10.50;99.90;;;;;;5049731;28;19916;-47
2022/05/22 00:55:42;;;;;;;;;;;10.50;99.90;;;;;;5054092;28;19923;-48
2022/05/22 00:58:13;;;;;;;;;;;10.50;99.90;;;;;;5051808;28;19925;-48
2022/05/22 01:00:38;;;;;;;;;;;10.50;99.90;;;;;;5052171;28;19917;-47
2022/05/22 01:05:50;;;;;;;;;;;10.60;99.90;;;;;;5054106;28;19920;-48
2022/05/22 01:08:15;;;;;;;;;;;10.50;99.90;;;;;;5050745;28;20374;-47
2022/05/22 01:10:45;;;;;;;;;;;10.40;99.90;;;;;;5050039;28;20382;-48
2022/05/22 01:13:11;;;;;;;;;;;10.40;99.90;;;;;;5053143;28;20389;-47
2022/05/22 01:15:37;;;;;;;;;;;10.40;99.90;;;;;;5068187;28;20335;-47
2022/05/22 01:18:03;;;;;;;;;;;10.30;99.90;;;;;;5054138;28;19954;-46
2022/05/22 01:20:28;;;;;;;;;;;10.30;99.90;;;;;;5055241;28;19974;-47
2022/05/22 01:22:54;;;;;;;;;;;10.30;99.90;;;;;;5049859;28;20454;-47
2022/05/22 01:25:19;;;;;;;;;;;10.30;99.90;;;;;;5051955;28;19922;-47
2022/05/22 01:27:45;;;;;;;;;;;10.30;99.90;;;;;;5054020;28;19916;-49
2022/05/22 01:30:11;;;;;;;;;;;10.20;99.90;;;;;;5052080;28;19921;-48
2022/05/22 01:32:37;;;;;;;;;;;10.20;99.90;;;;;;5049733;28;19928;-48
2022/05/22 01:35:03;;;;;;;;;;;10.20;99.90;;;;;;5053239;28;19963;-48
2022/05/22 01:37:29;;;;;;;;;;;10.10;99.90;;;;;;5053613;28;20007;-47
2022/05/22 01:39:54;;;;;;;;;;;10.10;99.90;;;;;;5049112;28;20016;-47
2022/05/22 01:42:20;;;;;;;;;;;10.10;99.90;;;;;;5054269;28;19917;-47
2022/05/22 01:44:45;;;;;;;;;;;10.10;99.90;;;;;;5049032;28;20454;-48
2022/05/22 01:47:11;;;;;;;;;;;10.10;99.90;;;;;;5060054;28;19920;-47
2022/05/22 01:49:36;;;;;;;;;;;10.00;99.90;;;;;;5066363;28;19921;-47
2022/05/22 01:52:02;;;;;;;;;;;10.00;99.90;;;;;;5063685;28;19917;-48
2022/05/22 01:54:27;;;;;;;;;;;10.00;99.90;;;;;;5071314;28;20393;-48
2022/05/22 01:56:53;;;;;;;;;;;9.90;99.90;;;;;;5062072;28;19935;-47
2022/05/22 01:59:18;;;;;;;;;;;10.00;99.90;;;;;;5073626;28;19956;-47
2022/05/22 02:01:43;;;;;;;;;;;10.00;99.90;;;;;;5071171;28;19920;-47
2022/05/22 02:04:09;;;;;;;;;;;9.90;99.90;;;;;;5056554;28;19917;-47
2022/05/22 02:06:35;;;;;;;;;;;9.90;99.90;;;;;;5059888;28;19923;-46
2022/05/22 02:09:00;;;;;;;;;;;9.90;99.90;;;;;;5072938;28;20300;-47
2022/05/22 02:11:26;;;;;;;;;;;10.00;99.90;;;;;;5066541;28;19923;-47
2022/05/22 02:13:52;;;;;;;;;;;9.90;99.90;;;;;;5053352;28;20333;-47
2022/05/22 02:16:17;;;;;;;;;;;10.00;99.90;;;;;;5058251;28;19955;-47
2022/05/22 02:18:43;;;;;;;;;;;10.00;99.90;;;;;;5073709;28;19920;-47
2022/05/22 02:21:09;;;;;;;;;;;9.90;99.90;;;;;;5068789;28;19920;-47
2022/05/22 02:23:35;;;;;;;;;;;9.90;99.90;;;;;;5054270;28;19963;-47
2022/05/22 02:26:01;;;;;;;;;;;9.90;99.90;;;;;;5056023;28;19986;-47
2022/05/22 02:28:27;;;;;;;;;;;9.80;99.90;;;;;;5052143;28;19920;-49
2022/05/22 02:30:54;;;;;;;;;;;9.80;99.90;;;;;;5054966;28;20370;-49
2022/05/22 02:33:19;;;;;;;;;;;9.80;99.90;;;;;;5054692;28;19916;-48
2022/05/22 02:35:45;;;;;;;;;;;9.70;99.90;;;;;;5053390;28;19924;-47
2022/05/22 02:38:11;;;;;;;;;;;9.70;99.90;;;;;;5072970;28;20428;-48
2022/05/22 02:40:37;;;;;;;;;;;9.60;99.90;;;;;;5069977;28;19975;-46
2022/05/22 02:43:02;;;;;;;;;;;9.60;99.90;;;;;;5069986;28;20719;-47
2022/05/22 02:45:30;;;;;;;;;;;9.50;99.90;;;;;;5070137;28;19917;-48
2022/05/22 02:47:55;;;;;;;;;;;9.50;99.90;;;;;;5068298;28;19916;-48
2022/05/22 02:50:23;;;;;;;;;;;9.40;99.90;;;;;;5068402;28;19924;-47
2022/05/22 02:52:50;;;;;;;;;;;9.30;99.90;;;;;;5052404;28;19917;-47
2022/05/22 02:55:16;;;;;;;;;;;9.30;99.90;;;;;;5060417;28;20404;-47
2022/05/22 02:57:43;;;;;;;;;;;9.30;99.90;;;;;;5061029;28;20015;-47
2022/05/22 03:00:10;;;;;;;;;;;9.30;99.90;;;;;;5057820;28;19920;-46
2022/05/22 03:02:36;;;;;;;;;;;9.30;99.90;;;;;;5070000;28;19920;-47
2022/05/22 03:05:02;;;;;;;;;;;9.20;99.90;;;;;;5057207;28;19939;-49
2022/05/22 03:07:27;;;;;;;;;;;9.20;99.90;;;;;;5055318;28;20408;-47
2022/05/22 03:09:53;;;;;;;;;;;9.10;99.90;;;;;;5053454;28;19990;-47
2022/05/22 03:12:19;;;;;;;;;;;9.10;99.90;;;;;;5054608;28;19931;-46
2022/05/22 03:14:46;;;;;;;;;;;9.10;99.90;;;;;;5063571;28;20355;-47
2022/05/22 03:17:12;;;;;;;;;;;9.10;99.90;;;;;;5056074;28;19921;-46
2022/05/22 03:19:37;;;;;;;;;;;9.10;99.90;;;;;;5052357;28;19923;-47
2022/05/22 03:22:04;;;;;;;;;;;9.10;99.90;;;;;;5066508;28;20402;-47
2022/05/22 03:24:29;;;;;;;;;;;9.10;99.90;;;;;;5072443;28;19916;-53
2022/05/22 03:26:55;;;;;;;;;;;9.10;99.90;;;;;;5058136;28;19961;-47
2022/05/22 03:29:20;;;;;;;;;;;9.10;99.90;;;;;;5051151;28;19948;-47
2022/05/22 03:31:46;;;;;;;;;;;9.10;99.90;;;;;;5063440;28;19920;-47
2022/05/22 03:34:12;;;;;;;;;;;9.10;99.90;;;;;;5071981;28;19938;-47
2022/05/22 03:36:41;;;;;;;;;;;9.10;99.90;;;;;;5059739;28;19916;-47
2022/05/22 03:39:06;;;;;;;;;;;9.00;99.90;;;;;;5052104;28;19978;-46
2022/05/22 03:41:33;;;;;;;;;;;9.00;99.90;;;;;;5060161;28;19967;-48
2022/05/22 03:43:59;;;;;;;;;;;9.00;99.90;;;;;;5070072;28;19924;-48
2022/05/22 03:46:24;;;;;;;;;;;9.00;99.90;;;;;;5053034;28;19916;-47
2022/05/22 03:48:50;;;;;;;;;;;9.00;99.90;;;;;;5056548;28;20202;-47
2022/05/22 03:51:15;;;;;;;;;;;9.00;99.90;;;;;;5051599;28;20457;-47
2022/05/22 03:53:40;;;;;;;;;;;8.90;99.90;;;;;;5054591;28;19916;-47
2022/05/22 03:56:13;;;;;;;;;;;8.90;99.90;;;;;;5055914;28;19927;-47
2022/05/22 03:58:39;;;;;;;;;;;8.90;99.90;;;;;;5051555;28;19939;-46
2022/05/22 04:01:04;;;;;;;;;;;8.90;99.90;;;;;;5052826;28;20401;-47
2022/05/22 04:03:30;;;;;;;;;;;8.80;99.90;;;;;;5071202;28;20364;-47
2022/05/22 04:05:55;;;;;;;;;;;8.90;99.90;;;;;;5069225;28;19921;-47
2022/05/22 04:08:21;;;;;;;;;;;8.90;99.90;;;;;;5051919;28;19921;-47
2022/05/22 04:10:47;;;;;;;;;;;8.90;99.90;;;;;;5052437;28;19924;-47
2022/05/22 04:13:13;;;;;;;;;;;8.90;99.90;;;;;;5067235;28;19916;-50
2022/05/22 04:15:38;;;;;;;;;;;9.00;99.90;;;;;;5070061;28;19977;-46
2022/05/22 04:18:04;;;;;;;;;;;9.00;99.90;;;;;;5055125;28;20378;-47
2022/05/22 04:20:30;;;;;;;;;;;9.10;99.90;;;;;;5051321;28;19916;-47
2022/05/22 04:25:50;;;;;;;;;;;9.10;99.90;;;;;;5058235;28;19917;-47
2022/05/22 04:28:16;;;;;;;;;;;9.10;99.90;;;;;;5070776;28;19916;-48
2022/05/22 04:30:41;;;;;;;;;;;9.20;99.90;;;;;;5057819;28;19927;-46
2022/05/22 04:33:07;;;;;;;;;;;9.20;99.90;;;;;;5068064;28;19920;-46
2022/05/22 04:35:32;;;;;;;;;;;9.20;99.90;;;;;;5065509;28;19923;-48
2022/05/22 04:38:02;;;;;;;;;;;9.20;99.90;;;;;;5071269;28;19969;-48
2022/05/22 04:40:27;;;;;;;;;;;9.30;99.90;;;;;;5063263;28;20002;-47
2022/05/22 04:42:53;;;;;;;;;;;9.30;99.90;;;;;;5069740;28;20491;-46
2022/05/22 04:45:18;;;;;;;;;;;9.40;99.90;;;;;;5060117;28;19916;-49
2022/05/22 04:47:44;;;;;;;;;;;9.40;99.90;;;;;;5066388;28;19920;-47
2022/05/22 04:50:10;;;;;;;;;;;9.50;99.90;;;;;;5055099;28;19960;-47
2022/05/22 04:52:36;;;;;;;;;;;9.50;99.90;;;;;;5050246;28;19931;-46
2022/05/22 04:55:02;;;;;;;;;;;9.50;99.90;;;;;;5054526;28;19916;-47
2022/05/22 04:57:27;;;;;;;;;;;9.60;99.90;;;;;;5070478;28;20399;-47
2022/05/22 04:59:53;;;;;;;;;;;9.70;99.90;;;;;;5064879;28;20332;-47
2022/05/22 05:02:18;;;;;;;;;;;9.70;99.90;;;;;;5050926;28;19924;-47
2022/05/22 05:04:44;;;;;;;;;;;9.80;99.90;;;;;;5054106;28;19920;-47
2022/05/22 05:07:09;;;;;;;;;;;9.90;99.90;;;;;;5070538;28;19939;-47
2022/05/22 05:09:35;;;;;;;;;;;10.00;99.90;;;;;;5065704;28;19921;-47
2022/05/22 05:12:01;;;;;;;;;;;10.10;99.90;;;;;;5067996;28;19920;-48
2022/05/22 05:14:27;;;;;;;;;;;10.20;99.90;;;;;;5067447;28;19916;-46
2022/05/22 05:16:52;;;;;;;;;;;10.30;99.90;;;;;;5057872;28;20297;-47
2022/05/22 05:19:18;;;;;;;;;;;10.50;99.90;;;;;;5050521;28;19970;-47
2022/05/22 05:21:43;;;;;;;;;;;10.60;99.90;;;;;;5053606;28;19920;-47
2022/05/22 05:24:09;;;;;;;;;;;10.80;99.90;;;;;;5051766;28;19923;-47
2022/05/22 05:26:35;;;;;;;;;;;10.90;99.90;;;;;;5051840;28;19917;-47
2022/05/22 05:29:00;;;;;;;;;;;11.00;99.90;;;;;;5051785;28;19921;-47
2022/05/22 05:31:26;;;;;;;;;;;11.20;99.90;;;;;;5060760;28;19921;-47
2022/05/22 05:33:51;;;;;;;;;;;11.30;99.90;;;;;;5067229;28;19925;-47
2022/05/22 05:36:17;;;;;;;;;;;11.40;99.90;;;;;;5064452;28;19916;-47
2022/05/22 05:38:42;;;;;;;;;;;11.50;99.90;;;;;;5069903;28;19917;-47
2022/05/22 05:41:08;;;;;;;;;;;11.70;99.90;;;;;;5053408;28;19916;-47
2022/05/22 05:43:33;;;;;;;;;;;11.80;99.90;;;;;;5051048;28;20554;-47
2022/05/22 05:45:59;;;;;;;;;;;11.90;99.90;;;;;;5053173;28;20086;-47
2022/05/22 05:48:24;;;;;;;;;;;12.00;99.90;;;;;;5053070;28;19920;-48
2022/05/22 05:50:49;;;;;;;;;;;12.10;99.90;;;;;;5055320;28;19916;-49
2022/05/22 05:53:15;;;;;;;;;;;12.20;99.90;;;;;;5058126;28;20413;-47
2022/05/22 05:55:41;;;;;;;;;;;12.30;99.90;;;;;;5051694;28;19916;-47
2022/05/22 05:58:06;;;;;;;;;;;12.40;99.90;;;;;;5055139;28;19917;-48
2022/05/22 06:00:31;;;;;;;;;;;12.50;99.90;;;;;;5070242;28;19955;-47
2022/05/22 06:02:57;;;;;;;;;;;12.60;99.90;;;;;;5065097;28;19935;-47
2022/05/22 06:05:23;;;;;;;;;;;12.80;99.90;;;;;;5049336;28;19916;-47
2022/05/22 06:07:50;;;;;;;;;;;12.90;99.90;;;;;;5060470;28;19921;-47
2022/05/22 06:10:15;;;;;;;;;;;13.00;99.90;;;;;;5057111;28;19929;-47
2022/05/22 06:12:41;;;;;;;;;;;13.10;99.90;;;;;;5049188;28;19917;-47
2022/05/22 06:15:07;;;;;;;;;;;13.20;99.90;;;;;;5057823;28;20393;-48
2022/05/22 06:17:34;;;;;;;;;;;13.30;99.90;;;;;;5069855;28;19969;-47
2022/05/22 06:20:00;;;;;;;;;;;13.40;99.90;;;;;;5061763;28;20338;-50
2022/05/22 06:22:26;;;;;;;;;;;13.40;99.90;;;;;;5049657;28;19961;-47
2022/05/22 06:24:53;;;;;;;;;;;13.60;99.90;;;;;;5076453;28;20015;-47
2022/05/22 06:27:18;;;;;;;;;;;13.60;99.90;;;;;;5051254;28;19924;-47
2022/05/22 06:29:44;;;;;;;;;;;13.70;99.90;;;;;;5064546;28;19924;-47
2022/05/22 06:32:11;;;;;;;;;;;13.80;99.90;;;;;;5069140;28;20070;-50
2022/05/22 06:34:41;;;;;;;;;;;13.90;99.90;;;;;;5064851;28;19920;-48
2022/05/22 06:37:07;;;;;;;;;;;14.00;99.90;;;;;;5071780;28;20335;-47
2022/05/22 06:39:49;;;;;;;;;;;14.00;99.90;;;;;;5068174;28;19921;-47
2022/05/22 06:42:16;;;;;;;;;;;14.10;99.90;;;;;;5052174;28;19916;-47
2022/05/22 06:44:42;;;;;;;;;;;14.20;99.90;;;;;;5060349;28;20065;-47
2022/05/22 06:47:07;;;;;;;;;;;14.20;99.90;;;;;;5071011;28;20046;-47
2022/05/22 06:49:33;;;;;;;;;;;14.30;99.90;;;;;;5062859;28;19942;-47
2022/05/22 06:51:58;;;;;;;;;;;14.30;99.90;;;;;;5071896;28;19920;-47
2022/05/22 06:54:24;;;;;;;;;;;14.40;99.90;;;;;;5066887;28;20227;-47
2022/05/22 06:56:50;;;;;;;;;;;14.40;99.90;;;;;;5052389;28;19916;-47
2022/05/22 06:59:16;;;;;;;;;;;14.50;99.90;;;;;;5056626;28;20385;-49
2022/05/22 07:01:41;;;;;;;;;;;14.60;99.90;;;;;;5063089;28;19928;-47
2022/05/22 07:04:07;;;;;;;;;;;14.60;99.90;;;;;;5072754;28;19916;-47
2022/05/22 07:06:32;;;;;;;;;;;14.70;99.90;;;;;;5070169;28;19971;-47
2022/05/22 07:08:58;;;;;;;;;;;14.80;99.90;;;;;;5065002;28;19920;-47
2022/05/22 07:11:38;;;;;;;;;;;14.90;99.90;;;;;;5052936;28;19944;-48
2022/05/22 07:14:04;;;;;;;;;;;15.00;99.90;;;;;;5055732;28;19916;-48
2022/05/22 07:16:31;;;;;;;;;;;15.00;99.90;;;;;;5056920;28;19916;-48
2022/05/22 07:18:57;;;;;;;;;;;15.10;99.90;;;;;;5069252;28;20373;-46
2022/05/22 07:21:24;;;;;;;;;;;15.20;99.90;;;;;;5065036;28;20014;-47
2022/05/22 07:23:50;;;;;;;;;;;15.20;99.90;;;;;;5052240;28;19962;-47
2022/05/22 07:26:18;;;;;;;;;;;15.30;99.90;;;;;;5055648;28;19986;-47
2022/05/22 07:28:44;;;;;;;;;;;15.30;99.90;;;;;;5052552;28;19971;-48
2022/05/22 07:31:13;;;;;;;;;;;15.40;99.90;;;;;;5056366;28;19920;-49
2022/05/22 07:33:38;;;;;;;;;;;15.50;99.90;;;;;;5059013;28;19946;-48
2022/05/22 07:36:04;;;;;;;;;;;15.50;99.90;;;;;;5051430;28;19927;-48
2022/05/22 07:38:29;;;;;;;;;;;15.60;99.90;;;;;;5053961;28;19917;-49
2022/05/22 07:40:55;;;;;;;;;;;15.60;99.90;;;;;;5071390;28;20435;-47
2022/05/22 07:43:21;;;;;;;;;;;15.80;99.90;;;;;;5062000;28;19920;-47
2022/05/22 07:45:46;;;;;;;;;;;15.90;99.90;;;;;;5051003;28;19916;-48
2022/05/22 07:48:13;;;;;;;;;;;16.00;99.90;;;;;;5061589;28;19916;-48
2022/05/22 07:50:39;;;;;;;;;;;16.00;99.90;;;;;;5071815;28;19920;-49
2022/05/22 07:53:04;;;;;;;;;;;16.10;99.90;;;;;;5062892;28;20057;-50
2022/05/22 07:55:30;;;;;;;;;;;16.20;99.90;;;;;;5070019;28;19923;-49
2022/05/22 07:57:55;;;;;;;;;;;16.30;99.90;;;;;;5063417;28;19993;-49
2022/05/22 08:00:21;;;;;;;;;;;16.40;99.90;;;;;;5052797;28;19928;-48
2022/05/22 08:02:47;;;;;;;;;;;16.50;99.90;;;;;;5074974;28;19924;-48
2022/05/22 08:05:13;;;;;;;;;;;16.50;99.90;;;;;;5066065;28;19917;-50
2022/05/22 08:07:38;;;;;;;;;;;16.60;99.90;;;;;;5062862;28;19939;-48
2022/05/22 08:10:05;;;;;;;;;;;16.70;99.90;;;;;;5056733;28;20042;-48
2022/05/22 08:12:37;;;;;;;;;;;16.70;99.90;;;;;;5069083;28;20011;-48
2022/05/22 08:15:04;;;;;;;;;;;16.90;99.90;;;;;;5065748;28;19966;-48
2022/05/22 08:17:35;;;;;;;;;;;16.90;99.90;;;;;;5069405;28;19932;-48
2022/05/22 08:20:09;;;;;;;;;;;17.10;99.90;;;;;;5060270;28;19916;-48
2022/05/22 08:22:35;;;;;;;;;;;17.20;99.90;;;;;;5052081;28;19932;-48
2022/05/22 08:25:01;;;;;;;;;;;17.20;99.90;;;;;;5050285;28;19916;-49
2022/05/22 08:27:27;;;;;;;;;;;17.20;99.90;;;;;;5058229;28;20278;-49
2022/05/22 08:29:53;;;;;;;;;;;17.40;99.90;;;;;;5070874;28;19920;-48
2022/05/22 08:32:18;;;;;;;;;;;17.50;99.90;;;;;;5063538;28;19924;-51
2022/05/22 08:34:44;;;;;;;;;;;17.50;99.90;;;;;;5050041;28;20064;-49
2022/05/22 08:37:10;;;;;;;;;;;17.50;99.90;;;;;;5053897;28;20010;-49
2022/05/22 08:39:35;;;;;;;;;;;17.60;99.90;;;;;;5071040;28;19916;-50
2022/05/22 08:42:07;;;;;;;;;;;17.60;99.90;;;;;;5065020;28;20412;-50
2022/05/22 08:44:32;;;;;;;;;;;17.70;99.90;;;;;;5069842;28;19970;-54
2022/05/22 08:47:06;;;;;;;;;;;17.70;99.90;;;;;;5065072;28;19990;-49
2022/05/22 08:49:38;;;;;;;;;;;17.70;99.90;;;;;;5070180;28;19933;-51
2022/05/22 08:52:09;;;;;;;;;;;17.80;99.50;;;;;;5065403;28;20011;-50
2022/05/22 08:54:38;;;;;;;;;;;17.90;99.80;;;;;;5050798;28;19920;-51
2022/05/22 09:00:08;;;;;;;;;;;18.20;99.90;;;;;;5050947;28;19916;-50
2022/05/22 09:02:41;;;;;;;;;;;18.50;99.50;;;;;;5064680;28;19920;-49
2022/05/22 09:05:15;;;;;;;;;;;18.70;99.40;;;;;;5048775;28;19916;-49
2022/05/22 09:07:41;;;;;;;;;;;18.80;99.20;;;;;;5055232;28;19916;-49
2022/05/22 09:10:09;;;;;;;;;;;18.80;98.30;;;;;;5050771;28;19925;-49
2022/05/22 09:12:49;;;;;;;;;;;18.70;98.00;;;;;;5053807;28;19917;-49
2022/05/22 09:15:18;;;;;;;;;;;18.60;98.00;;;;;;5050055;28;19923;-49
2022/05/22 09:17:49;;;;;;;;;;;18.60;97.80;;;;;;5054151;28;19971;-49
2022/05/22 09:20:19;;;;;;;;;;;18.50;98.00;;;;;;5068694;28;19916;-49
2022/05/22 09:22:45;;;;;;;;;;;18.60;98.10;;;;;;5066467;28;19916;-50
2022/05/22 09:25:21;;;;;;;;;;;18.60;98.00;;;;;;5049212;28;19916;-48
2022/05/22 09:28:01;;;;;;;;;;;18.60;98.10;;;;;;5066798;28;19924;-50
2022/05/22 09:30:43;;;;;;;;;;;18.70;97.50;;;;;;5051235;28;19921;-49
2022/05/22 09:33:08;;;;;;;;;;;18.90;98.10;;;;;;5065560;28;20003;-48
2022/05/22 09:35:46;;;;;;;;;;;18.90;96.10;;;;;;5049869;28;20007;-48
2022/05/22 09:38:19;;;;;;;;;;;18.90;96.40;;;;;;5052612;28;19925;-51
2022/05/22 09:40:46;;;;;;;;;;;18.90;96.10;;;;;;5053966;28;19916;-50
2022/05/22 09:43:18;;;;;;;;;;;18.90;95.80;;;;;;5051507;28;19970;-49
2022/05/22 09:46:02;;;;;;;;;;;19.00;97.70;;;;;;5065142;28;20278;-52
2022/05/22 09:48:38;;;;;;;;;;;19.10;96.70;;;;;;5051459;28;19974;-49
2022/05/22 09:51:11;;;;;;;;;;;19.10;96.40;;;;;;5053736;28;19947;-50
2022/05/22 09:54:03;;;;;;;;;;;19.10;96.00;;;;;;5053945;28;19916;-49
2022/05/22 09:56:34;;;;;;;;;;;19.20;95.50;;;;;;5061875;28;19943;-49
2022/05/22 09:59:18;;;;;;;;;;;19.30;95.80;;;;;;5068232;28;19916;-49
2022/05/22 10:01:45;;;;;;;;;;;19.50;96.40;;;;;;5064540;28;19927;-50
2022/05/22 10:04:11;;;;;;;;;;;19.50;95.20;;;;;;5060988;28;19921;-48
2022/05/22 10:07:01;;;;;;;;;;;19.50;95.00;;;;;;5052941;28;19939;-49
2022/05/22 10:09:26;;;;;;;;;;;19.60;94.30;;;;;;5061510;28;20385;-48
2022/05/22 10:12:10;;;;;;;;;;;19.60;93.70;;;;;;5061873;28;19921;-49
2022/05/22 10:14:54;;;;;;;;;;;19.60;93.20;;;;;;5053657;28;19924;-50
2022/05/22 10:17:28;;;;;;;;;;;19.60;94.30;;;;;;5052067;28;19970;-51
2022/05/22 10:20:12;;;;;;;;;;;19.70;93.60;;;;;;5068165;28;19927;-49
2022/05/22 10:22:58;;;;;;;;;;;19.70;93.10;;;;;;5066894;28;19916;-52
2022/05/22 10:25:49;;;;;;;;;;;19.70;92.20;;;;;;5036672;28;19924;-49
2022/05/22 10:28:15;;;;;;;;;;;19.70;92.00;;;;;;5052100;28;19917;-48
2022/05/22 10:31:03;;;;;;;;;;;19.60;91.50;;;;;;5054462;28;19921;-52
2022/05/22 10:33:38;;;;;;;;;;;19.50;91.40;;;;;;5053871;28;19916;-51
2022/05/22 10:36:05;;;;;;;;;;;19.50;92.20;;;;;;5058297;28;20499;-48
2022/05/22 10:38:36;;;;;;;;;;;19.40;92.50;;;;;;5053898;28;19921;-51
2022/05/22 10:43:59;;;;;;;;;;;19.30;92.80;;;;;;5057879;28;20003;-50
2022/05/22 10:46:25;;;;;;;;;;;19.30;92.20;;;;;;5072532;28;20329;-52
2022/05/22 10:48:54;;;;;;;;;;;19.30;92.40;;;;;;5068033;28;20011;-51
2022/05/22 10:51:24;;;;;;;;;;;19.40;92.90;;;;;;5052716;28;19920;-51
2022/05/22 10:53:52;;;;;;;;;;;19.40;92.80;;;;;;5057037;28;19923;-51
2022/05/22 10:56:19;;;;;;;;;;;19.50;93.90;;;;;;5052887;28;19924;-51
2022/05/22 10:58:55;;;;;;;;;;;19.70;93.40;;;;;;5058291;28;19920;-51
2022/05/22 11:01:25;;;;;;;;;;;19.80;92.60;;;;;;5061952;28;19926;-49
2022/05/22 11:04:07;;;;;;;;;;;20.00;93.50;;;;;;5056851;28;19954;-48
2022/05/22 11:06:33;;;;;;;;;;;20.10;92.10;;;;;;5066384;28;19962;-49
2022/05/22 11:08:59;;;;;;;;;;;20.20;91.20;;;;;;5070657;28;19926;-49
2022/05/22 11:11:24;;;;;;;;;;;20.20;90.70;;;;;;5069066;28;20327;-49
2022/05/22 11:13:53;;;;;;;;;;;20.20;90.60;;;;;;5067650;28;20348;-50
2022/05/22 11:16:24;;;;;;;;;;;20.30;91.20;;;;;;5053501;28;19916;-49
2022/05/22 11:19:01;;;;;;;;;;;20.40;90.80;;;;;;5062014;28;20297;-48
2022/05/22 11:21:31;;;;;;;;;;;20.50;92.00;;;;;;5054966;28;19921;-49
2022/05/22 11:24:09;;;;;;;;;;;20.60;90.00;;;;;;5051518;28;19962;-49
2022/05/22 11:26:46;;;;;;;;;;;20.60;90.40;;;;;;5056340;28;19927;-49
2022/05/22 11:29:18;;;;;;;;;;;20.60;89.80;;;;;;5057211;28;19968;-48
2022/05/22 11:31:51;;;;;;;;;;;20.60;90.20;;;;;;5051505;28;19917;-49
2022/05/22 11:34:37;;;;;;;;;;;20.60;90.40;;;;;;5055138;28;19968;-51
2022/05/22 11:37:10;;;;;;;;;;;20.70;90.50;;;;;;5051856;28;19916;-50
2022/05/22 11:39:38;;;;;;;;;;;20.90;90.10;;;;;;5057773;28;19916;-48
2022/05/22 11:42:23;;;;;;;;;;;21.00;87.60;;;;;;5049935;28;19921;-49
2022/05/22 11:45:17;;;;;;;;;;;21.20;89.70;;;;;;5065455;28;19924;-49
2022/05/22 11:48:02;;;;;;;;;;;21.30;88.80;;;;;;5015264;28;19916;-48
2022/05/22 11:50:37;;;;;;;;;;;21.40;86.30;;;;;;5057970;28;19990;-49
2022/05/22 11:53:03;;;;;;;;;;;21.50;86.10;;;;;;5065707;28;19923;-49
2022/05/22 11:55:29;;;;;;;;;;;21.60;87.20;;;;;;5069417;28;20437;-49
2022/05/22 11:58:02;;;;;;;;;;;21.50;83.40;;;;;;5065799;28;19978;-49
2022/05/22 12:00:32;;;;;;;;;;;21.40;81.50;;;;;;5065671;28;19964;-50
2022/05/22 12:03:16;;;;;;;;;;;21.20;83.00;;;;;;5054396;28;19923;-49
2022/05/22 12:06:02;;;;;;;;;;;21.10;83.20;;;;;;5051576;28;19940;-51
2022/05/22 12:08:46;;;;;;;;;;;21.20;84.50;;;;;;5054948;28;19967;-51
2022/05/22 12:11:14;;;;;;;;;;;21.30;83.30;;;;;;5060742;28;20404;-53
2022/05/22 12:13:55;;;;;;;;;;;21.40;81.00;;;;;;5066307;28;19923;-49
2022/05/22 12:16:37;;;;;;;;;;;21.50;81.30;;;;;;5059066;28;19920;-49
2022/05/22 12:19:10;;;;;;;;;;;21.50;76.60;;;;;;5069744;28;19923;-49
2022/05/22 12:21:51;;;;;;;;;;;21.50;79.10;;;;;;5058614;28;19988;-51
2022/05/22 12:24:37;;;;;;;;;;;21.30;80.40;;;;;;5051099;28;19917;-48
2022/05/22 12:27:05;;;;;;;;;;;21.10;78.10;;;;;;5051503;28;19923;-49
2022/05/22 12:29:34;;;;;;;;;;;20.90;78.20;;;;;;5051309;28;19924;-48
2022/05/22 12:32:05;;;;;;;;;;;20.90;78.30;;;;;;5059912;28;20373;-51
2022/05/22 12:34:36;;;;;;;;;;;21.00;80.40;;;;;;5069723;28;19978;-48
2022/05/22 12:37:03;;;;;;;;;;;21.10;80.50;;;;;;5055570;28;19916;-49
2022/05/22 12:39:31;;;;;;;;;;;21.40;83.00;;;;;;5070291;28;20010;-52
2022/05/22 12:41:59;;;;;;;;;;;21.50;79.80;;;;;;5061454;28;20289;-49
2022/05/22 12:44:25;;;;;;;;;;;21.70;80.90;;;;;;5070945;28;19916;-50
2022/05/22 12:46:52;;;;;;;;;;;21.80;78.70;;;;;;5055738;28;19921;-49
2022/05/22 12:49:23;;;;;;;;;;;21.80;79.50;;;;;;5051234;28;20392;-48
2022/05/22 12:52:18;;;;;;;;;;;21.80;78.20;;;;;;5060401;28;21306;-49
2022/05/22 12:54:54;;;;;;;;;;;21.80;78.80;;;;;;5027753;28;19932;-49
2022/05/22 12:57:19;;;;;;;;;;;21.70;76.60;;;;;;5045253;28;19928;-48
2022/05/22 12:59:54;;;;;;;;;;;21.70;76.20;;;;;;5043947;28;20449;-51
2022/05/22 13:02:25;;;;;;;;;;;21.70;75.10;;;;;;5034236;28;20314;-49
2022/05/22 13:04:51;;;;;;;;;;;21.70;75.30;;;;;;5032268;28;20370;-50
2022/05/22 13:07:22;;;;;;;;;;;21.70;74.30;;;;;;5028371;28;19978;-52
2022/05/22 13:09:51;;;;;;;;;;;21.60;76.20;;;;;;5035898;28;19971;-49
2022/05/22 13:12:17;;;;;;;;;;;21.70;75.70;;;;;;5039602;28;20306;-48
2022/05/22 13:15:02;;;;;;;;;;;21.80;77.00;;;;;;5042841;28;19916;-48
2022/05/22 13:17:50;;;;;;;;;;;21.90;75.10;;;;;;5034666;28;19979;-52
2022/05/22 13:20:21;;;;;;;;;;;22.10;75.30;;;;;;5025216;28;19924;-50
2022/05/22 13:22:47;;;;;;;;;;;22.20;75.10;;;;;;5041707;28;20246;-49
2022/05/22 13:25:28;;;;;;;;;;;22.20;74.00;;;;;;5043540;28;19924;-49
2022/05/22 13:27:54;;;;;;;;;;;22.20;73.10;;;;;;5026329;28;19921;-50
2022/05/22 13:30:25;;;;;;;;;;;22.20;73.20;;;;;;5043316;28;19927;-49
2022/05/22 13:32:51;;;;;;;;;;;22.30;74.30;;;;;;5064031;28;19916;-49
2022/05/22 13:35:18;;;;;;;;;;;22.30;73.40;;;;;;5060008;28;19917;-49
2022/05/22 13:37:46;;;;;;;;;;;22.40;72.50;;;;;;5067279;28;19923;-48
2022/05/22 13:40:18;;;;;;;;;;;22.40;72.00;;;;;;5056939;28;20382;-51
2022/05/22 13:44:04;;;;;;;2.47;0.53;;;22.50;72.40;;;;;;5096827;27;20316;-53
2022/05/22 13:47:02;;;;;;;7.15;0.73;;;22.40;71.60;;;;;;5082131;28;20290;-50
2022/05/22 13:49:47;;;;;;;4.68;0.85;;;22.40;71.10;;;;;;5086064;28;20107;-51
2022/05/22 13:52:34;;;;;;;4.00;0.68;;;22.30;71.10;;;;;;5086393;28;20221;-49
2022/05/22 13:55:21;;;;;;;4.38;0.55;;;22.20;71.90;;;;;;5076225;28;20405;-50
2022/05/22 13:57:57;;;;;;;;;;;22.20;70.10;;;;;;5087376;28;20493;-50
2022/05/22 14:00:26;;;;;;;2.78;0.38;;;22.10;73.50;;;;;;5076063;28;19970;-51
2022/05/22 14:03:07;;;;;;;12.50;0.60;;;21.90;72.00;;;;;;5085860;28;20037;-50
2022/05/22 14:05:38;;;;;;;4.07;1.05;;;21.60;71.20;;;;;;5086110;28;20451;-49
2022/05/22 14:08:20;;;;;;;3.03;0.45;;;21.40;70.90;;;;;;5086717;28;20537;-49
2022/05/22 14:10:46;;;;;;;3.15;0.30;;;21.30;71.60;;;;;;5073006;28;20545;-49
2022/05/22 14:13:14;;;;;;;;;;;21.20;72.30;;;;;;5086761;28;20289;-49
2022/05/22 14:15:51;;;;;;;3.10;0.43;;;21.10;72.20;;;;;;5085278;28;20382;-49
2022/05/22 14:18:19;;;;;;;5.22;0.85;;;21.20;72.40;;;;;;5086739;28;20075;-49
2022/05/22 14:20:48;;;;;;;5.97;0.50;;;21.20;72.70;;;;;;5085726;28;20036;-50
2022/05/22 14:23:27;;;;;;;5.78;0.70;;;21.30;74.60;;;;;;5085329;28;20378;-50
2022/05/22 14:25:59;;;;;;;3.72;0.60;;;21.40;72.80;;;;;;5085383;28;20043;-49
2022/05/22 14:28:28;;;;;;;7.60;0.50;;;21.60;71.90;;;;;;5086224;28;20036;-49
2022/05/22 14:30:54;;;;;;;3.60;0.73;;;21.60;72.00;;;;;;5085211;28;20128;-51
2022/05/22 14:33:20;;;;;;;;;;;21.70;73.00;;;;;;5085723;28;20123;-51
2022/05/22 14:35:51;;;;;;;3.83;0.75;;;21.60;69.80;;;;;;5085378;28;20015;-49
2022/05/22 14:38:31;;;;;;;9.38;0.68;;;21.70;72.50;;;;;;5086103;28;20043;-48